Time;durP1;ratioP1;P1;durP2;ratioP2;P2;SDS_P1;SDS_P2;PMS_P1;PMS_P2;Temp;Humidity;BMP_temperature;BMP_pressure;BME280_temperature;BME280_humidity;BME280_pressure;Samples;Min_cycle;Max_cycle;Signal;HPM_P1;HPM_P2
2023/05/20 00:00:06;;;;;;;4.40;3.13;;;;;;;;;;5074488;28;20443;-62
2023/05/20 00:02:33;;;;;;;3.57;3.33;;;;;;;;;;5074342;28;20451;-62
2023/05/20 00:05:02;;;;;;;3.40;3.10;;;;;;;;;;5074292;28;20531;-62
2023/05/20 00:07:30;;;;;;;3.30;3.00;;;;;;;;;;5074145;28;20944;-63
2023/05/20 00:09:59;;;;;;;3.43;3.13;;;;;;;;;;5074306;28;21022;-62
2023/05/20 00:12:26;;;;;;;4.43;3.27;;;;;;;;;;5074186;28;20480;-62
2023/05/20 00:14:53;;;;;;;3.37;3.07;;;;;;;;;;5074116;28;20543;-62
2023/05/20 00:17:20;;;;;;;3.30;2.90;;;;;;;;;;5074061;28;20451;-62
2023/05/20 00:19:47;;;;;;;4.00;3.60;;;;;;;;;;5073971;28;20448;-62
2023/05/20 00:22:14;;;;;;;3.50;3.07;;;;;;;;;;5073882;28;20881;-62
2023/05/20 00:24:42;;;;;;;3.90;2.80;;;;;;;;;;5074010;28;20448;-62
2023/05/20 00:27:09;;;;;;;4.43;3.20;;;;;;;;;;5073982;28;20429;-62
2023/05/20 00:29:36;;;;;;;4.17;3.40;;;;;;;;;;5073798;28;20444;-62
2023/05/20 00:32:03;;;;;;;3.30;3.00;;;;;;;;;;5073642;28;21024;-62
2023/05/20 00:34:29;;;;;;;3.47;3.27;;;;;;;;;;5073617;28;20454;-62
2023/05/20 00:36:56;;;;;;;3.40;3.10;;;;;;;;;;5073602;28;21042;-62
2023/05/20 00:39:23;;;;;;;3.80;3.50;;;;;;;;;;5073643;28;20508;-62
2023/05/20 00:41:51;;;;;;;4.37;3.40;;;;;;;;;;5073676;28;20538;-62
2023/05/20 00:44:22;;;;;;;3.83;3.43;;;;;;;;;;5073539;28;20531;-62
2023/05/20 00:46:49;;;;;;;5.03;3.40;;;;;;;;;;5073505;28;20537;-62
2023/05/20 00:49:16;;;;;;;6.60;3.50;;;;;;;;;;5073257;28;20486;-63
2023/05/20 00:51:43;;;;;;;3.73;3.43;;;;;;;;;;5073332;28;20475;-63
2023/05/20 00:54:10;;;;;;;4.13;3.73;;;;;;;;;;5073181;28;20554;-62
2023/05/20 00:56:37;;;;;;;4.37;3.70;;;;;;;;;;5073274;28;20444;-62
2023/05/20 00:59:06;;;;;;;5.47;3.57;;;;;;;;;;5073141;28;20447;-62
2023/05/20 01:01:32;;;;;;;3.77;3.33;;;;;;;;;;5073221;28;20551;-62
2023/05/20 01:03:59;;;;;;;4.57;3.50;;;;;;;;;;5072741;28;20456;-62
2023/05/20 01:06:27;;;;;;;3.60;3.30;;;;;;;;;;5073220;28;20527;-62
2023/05/20 01:08:53;;;;;;;4.53;3.67;;;;;;;;;;5073385;28;20806;-62
2023/05/20 01:11:24;;;;;;;7.93;3.67;;;;;;;;;;5072951;28;20519;-62
2023/05/20 01:13:54;;;;;;;4.10;3.60;;;;;;;;;;5072880;28;20476;-62
2023/05/20 01:16:24;;;;;;;4.67;4.10;;;;;;;;;;5072685;28;20439;-62
2023/05/20 01:18:53;;;;;;;4.67;4.27;;;;;;;;;;5072969;28;20487;-65
2023/05/20 01:21:21;;;;;;;3.73;3.43;;;;;;;;;;5072862;28;20423;-63
2023/05/20 01:23:50;;;;;;;6.33;3.77;;;;;;;;;;5072781;28;20455;-63
2023/05/20 01:26:17;;;;;;;4.07;3.77;;;;;;;;;;5072779;28;20455;-63
2023/05/20 01:28:46;;;;;;;4.30;3.90;;;;;;;;;;5072602;28;20550;-64
2023/05/20 01:31:16;;;;;;;5.20;4.17;;;;;;;;;;5072730;28;20564;-64
2023/05/20 01:33:43;;;;;;;4.23;3.83;;;;;;;;;;5072831;28;20452;-62
2023/05/20 01:36:10;;;;;;;4.10;3.70;;;;;;;;;;5072734;28;20811;-62
2023/05/20 01:38:38;;;;;;;4.97;3.27;;;;;;;;;;5072637;28;20795;-62
2023/05/20 01:41:07;;;;;;;4.27;3.80;;;;;;;;;;5072572;28;20454;-62
2023/05/20 01:43:34;;;;;;;5.23;3.83;;;;;;;;;;5072419;28;20458;-62
2023/05/20 01:46:02;;;;;;;8.37;4.00;;;;;;;;;;5072634;28;20539;-62
2023/05/20 01:48:28;;;;;;;6.00;3.70;;;;;;;;;;5072611;28;20452;-63
2023/05/20 01:50:55;;;;;;;3.77;3.37;;;;;;;;;;5072542;28;20429;-63
2023/05/20 01:53:22;;;;;;;4.23;3.87;;;;;;;;;;5072401;28;20482;-64
2023/05/20 01:55:49;;;;;;;4.30;3.90;;;;;;;;;;5072319;28;20454;-63
2023/05/20 01:58:17;;;;;;;4.30;3.90;;;;;;;;;;5072582;28;20780;-63
2023/05/20 02:00:44;;;;;;;4.63;3.73;;;;;;;;;;5072949;28;20483;-63
2023/05/20 02:03:11;;;;;;;4.20;3.80;;;;;;;;;;5072521;28;21026;-63
2023/05/20 02:05:38;;;;;;;4.87;3.67;;;;;;;;;;5072393;28;20545;-63
2023/05/20 02:08:05;;;;;;;14.60;4.17;;;;;;;;;;5072275;28;20542;-63
2023/05/20 02:10:32;;;;;;;3.97;3.63;;;;;;;;;;5072159;28;20983;-63
2023/05/20 02:12:59;;;;;;;3.90;3.53;;;;;;;;;;5072380;28;21099;-63
2023/05/20 02:15:28;;;;;;;4.30;3.37;;;;;;;;;;5074713;28;20826;-63
2023/05/20 02:17:56;;;;;;;5.80;3.67;;;;;;;;;;5076149;28;20450;-63
2023/05/20 02:20:23;;;;;;;4.00;3.43;;;;;;;;;;5076266;28;20418;-63
2023/05/20 02:22:50;;;;;;;3.63;3.33;;;;;;;;;;5076066;28;20511;-63
2023/05/20 02:25:17;;;;;;;4.70;3.40;;;;;;;;;;5076305;28;20537;-63
2023/05/20 02:27:44;;;;;;;4.20;3.60;;;;;;;;;;5076166;28;20450;-63
2023/05/20 02:30:11;;;;;;;3.57;3.20;;;;;;;;;;5076026;28;20418;-63
2023/05/20 02:32:39;;;;;;;7.13;3.13;;;;;;;;;;5075970;28;20483;-63
2023/05/20 02:35:06;;;;;;;4.07;3.67;;;;;;;;;;5075945;28;20450;-63
2023/05/20 02:37:34;;;;;;;8.80;5.03;;;;;;;;;;5075791;28;20830;-63
2023/05/20 02:40:00;;;;;;;4.87;3.80;;;;;;;;;;5075716;28;20944;-64
2023/05/20 02:42:27;;;;;;;4.57;3.70;;;;;;;;;;5075894;28;20477;-63
2023/05/20 02:44:57;;;;;;;3.47;3.00;;;;;;;;;;5075816;28;20517;-63
2023/05/20 02:47:24;;;;;;;4.40;4.00;;;;;;;;;;5075770;28;20437;-63
2023/05/20 02:49:52;;;;;;;4.37;3.97;;;;;;;;;;5075538;28;20496;-63
2023/05/20 02:52:19;;;;;;;5.13;4.03;;;;;;;;;;5075446;28;20486;-63
2023/05/20 02:54:46;;;;;;;5.90;4.20;;;;;;;;;;5075381;28;20450;-63
2023/05/20 02:57:13;;;;;;;4.50;4.10;;;;;;;;;;5075674;28;20855;-63
2023/05/20 02:59:41;;;;;;;4.53;3.87;;;;;;;;;;5075475;28;20454;-63
2023/05/20 03:02:08;;;;;;;6.20;3.80;;;;;;;;;;5075905;28;20458;-63
2023/05/20 03:04:37;;;;;;;6.23;3.87;;;;;;;;;;5075376;28;20545;-64
2023/05/20 03:07:07;;;;;;;3.87;3.40;;;;;;;;;;5075488;28;20521;-63
2023/05/20 03:09:34;;;;;;;3.80;3.50;;;;;;;;;;5075442;28;20448;-63
2023/05/20 03:12:01;;;;;;;6.20;4.30;;;;;;;;;;5075132;28;20549;-63
2023/05/20 03:14:28;;;;;;;4.60;3.80;;;;;;;;;;5075236;28;20684;-63
2023/05/20 03:16:55;;;;;;;3.67;3.33;;;;;;;;;;5075055;28;20939;-63
2023/05/20 03:19:22;;;;;;;5.93;3.43;;;;;;;;;;5074998;28;20946;-63
2023/05/20 03:21:50;;;;;;;3.70;3.40;;;;;;;;;;5075244;28;20447;-63
2023/05/20 03:24:18;;;;;;;4.47;4.07;;;;;;;;;;5074899;28;20511;-63
2023/05/20 03:26:45;;;;;;;7.03;4.00;;;;;;;;;;5074851;28;20425;-63
2023/05/20 03:29:12;;;;;;;6.97;4.00;;;;;;;;;;5074878;28;20448;-63
2023/05/20 03:31:39;;;;;;;5.60;3.90;;;;;;;;;;5075290;28;20447;-63
2023/05/20 03:34:06;;;;;;;4.37;4.07;;;;;;;;;;5074763;28;20427;-63
2023/05/20 03:36:33;;;;;;;5.30;4.80;;;;;;;;;;5074908;28;20543;-63
2023/05/20 03:39:00;;;;;;;5.30;4.30;;;;;;;;;;5074819;28;20448;-63
2023/05/20 03:41:28;;;;;;;6.60;4.57;;;;;;;;;;5074743;28;20534;-63
2023/05/20 03:43:55;;;;;;;4.43;3.80;;;;;;;;;;5074671;28;20422;-63
2023/05/20 03:46:22;;;;;;;3.80;3.53;;;;;;;;;;5074438;28;20994;-63
2023/05/20 03:48:49;;;;;;;5.47;4.63;;;;;;;;;;5074664;28;20501;-63
2023/05/20 03:51:16;;;;;;;6.13;4.17;;;;;;;;;;5074609;28;20448;-63
2023/05/20 03:53:43;;;;;;;3.70;3.40;;;;;;;;;;5074056;28;21007;-63
2023/05/20 03:56:11;;;;;;;10.03;4.30;;;;;;;;;;5074457;28;20480;-63
2023/05/20 03:58:39;;;;;;;4.17;3.30;;;;;;;;;;5074303;28;20543;-63
2023/05/20 04:01:06;;;;;;;4.70;3.73;;;;;;;;;;5074327;28;21005;-63
2023/05/20 04:03:33;;;;;;;3.27;3.07;;;;;;;;;;5074412;28;20538;-63
2023/05/20 04:06:00;;;;;;;4.10;3.70;;;;;;;;;;5074288;28;20959;-63
2023/05/20 04:08:26;;;;;;;7.00;3.93;;;;;;;;;;5074183;28;20542;-63
2023/05/20 04:10:56;;;;;;;4.07;3.77;;;;;;;;;;5074116;28;20454;-63
2023/05/20 04:13:24;;;;;;;5.03;4.50;;;;;;;;;;5073917;28;20462;-63
2023/05/20 04:15:52;;;;;;;4.30;3.60;;;;;;;;;;5074179;28;20452;-64
2023/05/20 04:18:19;;;;;;;4.17;3.77;;;;;;;;;;5074070;28;20532;-63
2023/05/20 04:20:46;;;;;;;7.57;3.93;;;;;;;;;;5074086;28;20419;-63
2023/05/20 04:23:13;;;;;;;4.27;3.90;;;;;;;;;;5074016;28;20884;-63
2023/05/20 04:25:40;;;;;;;8.90;4.40;;;;;;;;;;5073971;28;20444;-63
2023/05/20 04:28:09;;;;;;;5.17;4.10;;;;;;;;;;5073714;28;20953;-63
2023/05/20 04:30:36;;;;;;;6.67;4.20;;;;;;;;;;5074013;28;20478;-64
2023/05/20 04:33:05;;;;;;;4.40;3.83;;;;;;;;;;5073788;28;20585;-63
2023/05/20 04:35:33;;;;;;;5.70;4.00;;;;;;;;;;5073772;28;20422;-63
2023/05/20 04:38:00;;;;;;;5.10;4.10;;;;;;;;;;5073171;28;20455;-63
2023/05/20 04:40:27;;;;;;;4.30;3.90;;;;;;;;;;5073548;28;20452;-63
2023/05/20 04:42:57;;;;;;;4.30;3.90;;;;;;;;;;5073815;28;20452;-63
2023/05/20 04:45:24;;;;;;;5.47;4.13;;;;;;;;;;5073741;28;20452;-63
2023/05/20 04:47:52;;;;;;;5.63;4.10;;;;;;;;;;5073688;28;20452;-63
2023/05/20 04:50:20;;;;;;;4.80;4.20;;;;;;;;;;5073385;28;20460;-63
2023/05/20 04:52:48;;;;;;;6.10;5.00;;;;;;;;;;5073396;28;20874;-63
2023/05/20 04:55:15;;;;;;;9.33;4.80;;;;;;;;;;5073093;28;20484;-63
2023/05/20 04:57:42;;;;;;;5.47;4.90;;;;;;;;;;5073434;28;20452;-63
2023/05/20 05:00:09;;;;;;;4.63;3.93;;;;;;;;;;5073422;28;20475;-63
2023/05/20 05:02:37;;;;;;;5.07;4.57;;;;;;;;;;5073237;28;20939;-63
2023/05/20 05:05:03;;;;;;;5.93;4.20;;;;;;;;;;5073371;28;20457;-63
2023/05/20 05:07:34;;;;;;;5.90;4.57;;;;;;;;;;5073136;28;20539;-63
2023/05/20 05:10:01;;;;;;;5.03;4.60;;;;;;;;;;5073337;28;20542;-64
2023/05/20 05:12:28;;;;;;;9.90;4.13;;;;;;;;;;5073279;28;20454;-63
2023/05/20 05:14:54;;;;;;;5.90;4.87;;;;;;;;;;5073220;28;20447;-63
2023/05/20 05:17:21;;;;;;;5.63;4.33;;;;;;;;;;5073148;28;20541;-63
2023/05/20 05:19:48;;;;;;;4.73;4.27;;;;;;;;;;5073215;28;20458;-63
2023/05/20 05:22:15;;;;;;;5.90;3.67;;;;;;;;;;5072920;28;20448;-63
2023/05/20 05:24:43;;;;;;;5.17;4.67;;;;;;;;;;5073180;28;20448;-63
2023/05/20 05:27:10;;;;;;;9.60;5.03;;;;;;;;;;5073072;28;20448;-63
2023/05/20 05:29:37;;;;;;;6.73;4.93;;;;;;;;;;5073004;28;20446;-63
2023/05/20 05:32:04;;;;;;;7.53;4.53;;;;;;;;;;5072880;28;20451;-63
2023/05/20 05:34:31;;;;;;;6.27;4.37;;;;;;;;;;5072712;28;20481;-64
2023/05/20 05:36:58;;;;;;;4.30;3.90;;;;;;;;;;5072711;28;20429;-63
2023/05/20 05:39:27;;;;;;;5.37;4.40;;;;;;;;;;5072851;28;20461;-63
2023/05/20 05:41:55;;;;;;;5.60;4.97;;;;;;;;;;5072770;28;20490;-63
2023/05/20 05:44:22;;;;;;;6.60;4.40;;;;;;;;;;5072766;28;20459;-63
2023/05/20 05:46:49;;;;;;;5.37;4.83;;;;;;;;;;5072659;28;20501;-63
2023/05/20 05:49:16;;;;;;;5.10;4.70;;;;;;;;;;5072966;28;20454;-63
2023/05/20 05:51:43;;;;;;;7.80;4.83;;;;;;;;;;5077045;28;20535;-63
2023/05/20 05:54:10;;;;;;;5.67;5.10;;;;;;;;;;5076615;28;20607;-63
2023/05/20 05:56:37;;;;;;;6.70;5.57;;;;;;;;;;5076850;28;20452;-63
2023/05/20 05:59:05;;;;;;;6.63;4.43;;;;;;;;;;5076785;28;20902;-63
2023/05/20 06:01:32;;;;;;;5.13;4.30;;;;;;;;;;5076605;28;20539;-63
2023/05/20 06:04:00;;;;;;;4.90;4.60;;;;;;;;;;5076793;28;20430;-63
2023/05/20 06:06:27;;;;;;;6.63;4.60;;;;;;;;;;5076729;28;20426;-63
2023/05/20 06:08:54;;;;;;;5.37;4.77;;;;;;;;;;5076588;28;20534;-63
2023/05/20 06:11:22;;;;;;;8.40;4.60;;;;;;;;;;5076562;28;20487;-63
2023/05/20 06:13:49;;;;;;;6.53;5.03;;;;;;;;;;5076298;28;20489;-63
2023/05/20 06:16:17;;;;;;;5.87;5.27;;;;;;;;;;5076227;28;20454;-63
2023/05/20 06:18:44;;;;;;;6.90;5.60;;;;;;;;;;5076493;28;20450;-63
2023/05/20 06:21:11;;;;;;;6.17;5.27;;;;;;;;;;5076372;28;20454;-63
2023/05/20 06:23:38;;;;;;;5.13;4.60;;;;;;;;;;5076453;28;20825;-63
2023/05/20 06:26:05;;;;;;;6.97;5.50;;;;;;;;;;5076142;28;20447;-63
2023/05/20 06:28:32;;;;;;;11.77;5.67;;;;;;;;;;5076114;28;20913;-63
2023/05/20 06:30:59;;;;;;;6.17;5.30;;;;;;;;;;5076059;28;20598;-63
2023/05/20 06:33:28;;;;;;;4.47;4.07;;;;;;;;;;5076085;28;20475;-63
2023/05/20 06:35:56;;;;;;;10.43;5.27;;;;;;;;;;5076187;28;20452;-63
2023/05/20 06:38:22;;;;;;;6.23;5.10;;;;;;;;;;5075945;28;20451;-63
2023/05/20 06:40:49;;;;;;;5.23;4.73;;;;;;;;;;5075973;28;20546;-63
2023/05/20 06:43:16;;;;;;;6.50;4.70;;;;;;;;;;5075804;28;20456;-63
2023/05/20 06:45:44;;;;;;;6.27;5.40;;;;;;;;;;5076072;28;20870;-63
2023/05/20 06:48:11;;;;;;;6.50;4.70;;;;;;;;;;5075857;28;20539;-63
2023/05/20 06:50:39;;;;;;;7.10;4.70;;;;;;;;;;5075871;28;20423;-63
2023/05/20 06:53:06;;;;;;;5.40;4.90;;;;;;;;;;5075760;28;20471;-63
2023/05/20 06:55:35;;;;;;;5.90;4.63;;;;;;;;;;5075463;28;20450;-63
2023/05/20 06:58:02;;;;;;;6.73;4.30;;;;;;;;;;5075499;28;20882;-63
2023/05/20 07:00:29;;;;;;;4.93;4.43;;;;;;;;;;5075228;28;20451;-63
2023/05/20 07:02:56;;;;;;;7.33;4.83;;;;;;;;;;5075650;28;20491;-63
2023/05/20 07:05:24;;;;;;;5.33;4.47;;;;;;;;;;5075397;28;21039;-63
2023/05/20 07:07:52;;;;;;;4.40;4.00;;;;;;;;;;5075395;28;20458;-63
2023/05/20 07:10:19;;;;;;;6.80;5.30;;;;;;;;;;5075364;28;20538;-63
2023/05/20 07:12:46;;;;;;;5.30;4.80;;;;;;;;;;5075138;28;20478;-63
2023/05/20 07:15:13;;;;;;;8.03;5.50;;;;;;;;;;5075395;28;20800;-63
2023/05/20 07:17:40;;;;;;;8.50;4.97;;;;;;;;;;5075276;28;20454;-63
2023/05/20 07:20:08;;;;;;;6.30;5.43;;;;;;;;;;5075017;28;20466;-63
2023/05/20 07:22:34;;;;;;;5.67;5.17;;;;;;;;;;5075064;28;20619;-63
2023/05/20 07:25:03;;;;;;;5.20;4.70;;;;;;;;;;5074898;28;20462;-64
2023/05/20 07:27:32;;;;;;;5.37;4.67;;;;;;;;;;5075239;28;20875;-63
2023/05/20 07:29:59;;;;;;;7.70;4.87;;;;;;;;;;5075093;28;20453;-63
2023/05/20 07:32:26;;;;;;;5.23;4.77;;;;;;;;;;5074752;28;20482;-63
2023/05/20 07:34:52;;;;;;;6.37;5.73;;;;;;;;;;5074831;28;20490;-63
2023/05/20 07:37:19;;;;;;;4.93;4.50;;;;;;;;;;5074750;28;20969;-63
2023/05/20 07:39:46;;;;;;;10.10;5.60;;;;;;;;;;5074549;28;20488;-63
2023/05/20 07:42:16;;;;;;;7.50;4.93;;;;;;;;;;5074859;28;20447;-63
2023/05/20 07:44:43;;;;;;;5.93;5.20;;;;;;;;;;5074760;28;20554;-63
2023/05/20 07:47:12;;;;;;;6.80;4.37;;;;;;;;;;5074758;28;20451;-63
2023/05/20 07:49:39;;;;;;;5.50;5.00;;;;;;;;;;5074635;28;20810;-63
2023/05/20 07:52:06;;;;;;;7.43;5.23;;;;;;;;;;5074495;28;20935;-63
2023/05/20 07:54:37;;;;;;;7.43;6.13;;;;;;;;;;5074339;28;20492;-63
2023/05/20 07:57:06;;;;;;;5.80;5.03;;;;;;;;;;5074561;28;20862;-63
2023/05/20 07:59:34;;;;;;;5.67;4.70;;;;;;;;;;5074252;28;20939;-63
2023/05/20 08:02:01;;;;;;;7.20;5.40;;;;;;;;;;5074755;28;20858;-63
2023/05/20 08:04:28;;;;;;;6.03;5.50;;;;;;;;;;5074192;28;20475;-63
2023/05/20 08:06:55;;;;;;;5.33;4.83;;;;;;;;;;5074202;28;20812;-63
2023/05/20 08:09:24;;;;;;;5.80;5.03;;;;;;;;;;5074220;28;20800;-63
2023/05/20 08:11:51;;;;;;;5.77;5.00;;;;;;;;;;5073620;28;20452;-63
2023/05/20 08:14:18;;;;;;;6.20;5.17;;;;;;;;;;5073765;28;20501;-63
2023/05/20 08:16:46;;;;;;;5.40;5.00;;;;;;;;;;5073916;28;20454;-63
2023/05/20 08:19:13;;;;;;;7.10;4.60;;;;;;;;;;5073804;28;20494;-63
2023/05/20 08:21:40;;;;;;;5.17;4.70;;;;;;;;;;5074066;28;20454;-63
2023/05/20 08:24:07;;;;;;;6.53;5.20;;;;;;;;;;5073919;28;20458;-63
2023/05/20 08:26:39;;;;;;;5.77;5.23;;;;;;;;;;5073901;28;20818;-63
2023/05/20 08:29:07;;;;;;;6.53;5.33;;;;;;;;;;5073711;28;20452;-63
2023/05/20 08:31:34;;;;;;;4.93;4.53;;;;;;;;;;5073674;28;20452;-64
2023/05/20 08:34:02;;;;;;;6.00;4.97;;;;;;;;;;5073786;28;20475;-63
2023/05/20 08:36:29;;;;;;;7.60;5.67;;;;;;;;;;5073769;28;20453;-63
2023/05/20 08:38:56;;;;;;;6.53;5.50;;;;;;;;;;5073656;28;20908;-64
2023/05/20 08:41:23;;;;;;;6.30;4.93;;;;;;;;;;5073575;28;20458;-63
2023/05/20 08:43:51;;;;;;;6.33;5.30;;;;;;;;;;5073542;28;20464;-63
2023/05/20 08:46:19;;;;;;;7.93;5.50;;;;;;;;;;5073354;28;20463;-63
2023/05/20 08:48:47;;;;;;;5.30;4.80;;;;;;;;;;5073445;28;20440;-64
2023/05/20 08:51:16;;;;;;;8.57;6.30;;;;;;;;;;5073317;28;20531;-63
2023/05/20 08:53:45;;;;;;;8.03;6.77;;;;;;;;;;5073096;28;20472;-63
2023/05/20 08:56:17;;;;;;;8.60;6.90;;;;;;;;;;5073221;28;20452;-63
2023/05/20 08:58:45;;;;;;;7.60;6.63;;;;;;;;;;5073124;28;20449;-63
2023/05/20 09:01:15;;;;;;;7.90;7.13;;;;;;;;;;5073337;28;20444;-63
2023/05/20 09:03:42;;;;;;;10.33;8.30;;;;;;;;;;5073044;28;21004;-63
2023/05/20 09:06:09;;;;;;;7.73;6.93;;;;;;;;;;5073188;28;20543;-63
2023/05/20 09:08:38;;;;;;;8.10;7.30;;;;;;;;;;5073087;28;20481;-63
2023/05/20 09:11:05;;;;;;;7.80;7.10;;;;;;;;;;5073013;28;20434;-63
2023/05/20 09:13:32;;;;;;;8.37;7.47;;;;;;;;;;5072805;28;20483;-64
2023/05/20 09:16:00;;;;;;;9.93;6.57;;;;;;;;;;5073101;28;20505;-63
2023/05/20 09:18:28;;;;;;;8.30;7.40;;;;;;;;;;5072909;28;20509;-63
2023/05/20 09:20:55;;;;;;;8.30;7.50;;;;;;;;;;5072969;28;20488;-63
2023/05/20 09:23:23;;;;;;;9.50;8.03;;;;;;;;;;5072636;28;20480;-63
2023/05/20 09:25:52;;;;;;;12.97;8.07;;;;;;;;;;5072728;28;20451;-64
2023/05/20 09:28:19;;;;;;;9.07;8.13;;;;;;;;;;5072885;28;20455;-63
2023/05/20 09:30:50;;;;;;;8.00;7.20;;;;;;;;;;5072672;28;20944;-63
2023/05/20 09:33:17;;;;;;;9.33;8.43;;;;;;;;;;5072860;28;20506;-63
2023/05/20 09:35:44;;;;;;;9.50;7.63;;;;;;;;;;5072682;28;20576;-63
2023/05/20 09:38:11;;;;;;;9.70;8.33;;;;;;;;;;5073130;28;20457;-63
2023/05/20 09:40:39;;;;;;;9.23;7.30;;;;;;;;;;5072572;28;20472;-63
2023/05/20 09:43:07;;;;;;;7.53;6.73;;;;;;;;;;5072508;28;20920;-63
2023/05/20 09:45:35;;;;;;;8.07;6.97;;;;;;;;;;5072510;28;20949;-63
2023/05/20 09:48:02;;;;;;;9.20;7.43;;;;;;;;;;5072586;28;20530;-63
2023/05/20 09:50:30;;;;;;;9.83;7.93;;;;;;;;;;5072584;28;20826;-63
2023/05/20 09:52:57;;;;;;;8.13;6.93;;;;;;;;;;5072499;28;20451;-63
2023/05/20 09:55:25;;;;;;;6.93;6.33;;;;;;;;;;5072338;28;21013;-63
2023/05/20 09:57:52;;;;;;;10.00;7.40;;;;;;;;;;5072809;28;20494;-63
2023/05/20 10:00:20;;;;;;;9.73;7.70;;;;;;;;;;5072540;28;20448;-63
2023/05/20 10:02:48;;;;;;;7.87;7.00;;;;;;;;;;5072463;28;20444;-63
2023/05/20 10:05:18;;;;;;;11.07;7.77;;;;;;;;;;5072377;28;20544;-63
2023/05/20 10:07:56;;;;;;;8.30;7.50;;;;;;;;;;5072273;28;20449;-63
2023/05/20 10:10:28;;;;;;;7.13;6.47;;;;;;;;;;5072471;28;20550;-63
2023/05/20 10:12:59;;;;;;;8.93;6.90;;;;;;;;;;5072422;28;20541;-63
2023/05/20 10:15:29;;;;;;;7.80;7.00;;;;;;;;;;5072234;28;20490;-63
2023/05/20 10:18:05;;;;;;;10.97;7.73;;;;;;;;;;5072097;28;20454;-63
2023/05/20 10:20:32;;;;;;;8.90;8.10;;;;;;;;;;5072423;28;20459;-63
2023/05/20 10:22:59;;;;;;;11.60;8.03;;;;;;;;;;5072531;28;20526;-63
2023/05/20 10:25:27;;;;;;;9.53;7.80;;;;;;;;;;5072458;28;20478;-63
2023/05/20 10:28:06;;;;;;;10.90;8.23;;;;;;;;;;5072231;28;20967;-63
2023/05/20 10:30:34;;;;;;;8.67;7.77;;;;;;;;;;5072254;28;20838;-63
2023/05/20 10:33:04;;;;;;;11.80;8.90;;;;;;;;;;5072285;28;20447;-64
2023/05/20 10:35:31;;;;;;;8.47;7.63;;;;;;;;;;5073058;28;20484;-63
2023/05/20 10:38:07;;;;;;;8.00;6.80;;;;;;;;;;5075741;28;20990;-63
2023/05/20 10:40:34;;;;;;;8.50;7.60;;;;;;;;;;5075920;28;20547;-63
2023/05/20 10:43:09;;;;;;;9.93;7.43;;;;;;;;;;5075783;28;20485;-63
2023/05/20 10:45:48;;;;;;;8.70;7.53;;;;;;;;;;5075701;28;20466;-64
2023/05/20 10:48:20;;;;;;;8.33;7.40;;;;;;;;;;5075821;28;20460;-63
2023/05/20 10:50:48;;;;;;;9.40;7.53;;;;;;;;;;5075696;28;20468;-63
2023/05/20 10:53:15;;;;;;;7.67;6.97;;;;;;;;;;5075627;28;20535;-63
2023/05/20 10:55:42;;;;;;;10.30;7.87;;;;;;;;;;5075351;28;20542;-63
2023/05/20 10:58:10;;;;;;;7.03;6.40;;;;;;;;;;5075723;28;20448;-63
2023/05/20 11:00:39;;;;;;;7.77;6.20;;;;;;;;;;5075598;28;20539;-63
2023/05/20 11:03:07;;;;;;;8.57;7.23;;;;;;;;;;5075547;28;20445;-63
2023/05/20 11:05:34;;;;;;;10.50;7.40;;;;;;;;;;5075420;28;20532;-63
2023/05/20 11:08:02;;;;;;;9.73;8.77;;;;;;;;;;5075240;28;20479;-64
2023/05/20 11:10:29;;;;;;;10.07;7.63;;;;;;;;;;5075254;28;20937;-63
2023/05/20 11:12:56;;;;;;;8.60;7.33;;;;;;;;;;5075286;28;20994;-63
2023/05/20 11:15:24;;;;;;;9.03;7.73;;;;;;;;;;5075210;28;20576;-63
2023/05/20 11:17:56;;;;;;;8.27;7.47;;;;;;;;;;5075180;28;20457;-63
2023/05/20 11:20:23;;;;;;;8.23;6.80;;;;;;;;;;5074894;28;20542;-63
2023/05/20 11:22:51;;;;;;;10.07;7.90;;;;;;;;;;5075529;28;20457;-63
2023/05/20 11:25:18;;;;;;;9.83;8.93;;;;;;;;;;5075202;28;20457;-63
2023/05/20 11:27:45;;;;;;;11.40;8.27;;;;;;;;;;5075485;28;20453;-63
2023/05/20 11:30:15;;;;;;;17.90;8.10;;;;;;;;;;5074953;28;20492;-63
2023/05/20 11:32:42;;;;;;;7.73;7.00;;;;;;;;;;5075061;28;20452;-63
2023/05/20 11:35:20;;;;;;;9.20;7.70;;;;;;;;;;5074754;28;20560;-63
2023/05/20 11:37:47;;;;;;;8.10;7.30;;;;;;;;;;5074999;28;20460;-63
2023/05/20 11:40:14;;;;;;;9.03;8.07;;;;;;;;;;5074892;28;20460;-63
2023/05/20 11:42:44;;;;;;;9.50;8.07;;;;;;;;;;5074922;28;20446;-64
2023/05/20 11:45:14;;;;;;;7.70;6.90;;;;;;;;;;5074702;28;20561;-64
2023/05/20 11:47:40;;;;;;;8.83;7.87;;;;;;;;;;5073394;28;20485;-64
2023/05/20 11:50:10;;;;;;;9.67;8.80;;;;;;;;;;5074687;28;20779;-64
2023/05/20 11:52:38;;;;;;;8.20;7.40;;;;;;;;;;5074579;28;20457;-64
2023/05/20 11:55:05;;;;;;;9.13;8.20;;;;;;;;;;5074288;28;20484;-64
2023/05/20 11:57:32;;;;;;;8.80;7.93;;;;;;;;;;5074371;28;20459;-64
2023/05/20 11:59:59;;;;;;;7.67;6.93;;;;;;;;;;5074226;28;20449;-65
2023/05/20 12:02:26;;;;;;;8.30;7.60;;;;;;;;;;5074226;28;20456;-64
2023/05/20 12:04:53;;;;;;;10.20;7.80;;;;;;;;;;5074502;28;20448;-64
2023/05/20 12:07:22;;;;;;;8.83;7.63;;;;;;;;;;5074176;28;20518;-64
2023/05/20 12:09:50;;;;;;;8.83;7.97;;;;;;;;;;5074150;28;20454;-64
2023/05/20 12:12:18;;;;;;;9.87;8.60;;;;;;;;;;5074171;28;20462;-64
2023/05/20 12:14:45;;;;;;;8.17;7.37;;;;;;;;;;5074049;28;20450;-63
2023/05/20 12:17:12;;;;;;;9.17;8.37;;;;;;;;;;5074206;28;20537;-64
2023/05/20 12:19:39;;;;;;;10.33;8.93;;;;;;;;;;5074311;28;20450;-63
2023/05/20 12:22:06;;;;;;;8.93;8.00;;;;;;;;;;5074098;28;20787;-63
2023/05/20 12:24:33;;;;;;;9.13;8.13;;;;;;;;;;5073890;28;20456;-63
2023/05/20 12:27:02;;;;;;;8.07;7.37;;;;;;;;;;5073788;28;20546;-63
2023/05/20 12:29:29;;;;;;;8.43;7.40;;;;;;;;;;5073875;28;20490;-63
2023/05/20 12:31:56;;;;;;;17.57;7.60;;;;;;;;;;5073919;28;20794;-63
2023/05/20 12:34:23;;;;;;;7.97;7.27;;;;;;;;;;5073903;28;20454;-63
2023/05/20 12:36:50;;;;;;;8.50;7.70;;;;;;;;;;5073387;28;21019;-63
2023/05/20 12:39:17;;;;;;;7.93;7.13;;;;;;;;;;5073572;28;20545;-63
2023/05/20 12:41:44;;;;;;;8.63;7.40;;;;;;;;;;5073471;28;20460;-63
2023/05/20 12:44:13;;;;;;;9.00;8.10;;;;;;;;;;5073491;28;20454;-64
2023/05/20 12:46:39;;;;;;;9.23;8.00;;;;;;;;;;5073645;28;20810;-63
2023/05/20 12:49:06;;;;;;;7.83;6.90;;;;;;;;;;5073408;28;20949;-63
2023/05/20 12:51:33;;;;;;;7.97;7.13;;;;;;;;;;5073355;28;20447;-63
2023/05/20 12:54:00;;;;;;;10.67;7.63;;;;;;;;;;5073098;28;20561;-63
2023/05/20 12:56:27;;;;;;;9.40;7.57;;;;;;;;;;5073173;28;20480;-63
2023/05/20 12:58:54;;;;;;;9.10;7.40;;;;;;;;;;5073083;28;20486;-63
2023/05/20 13:01:23;;;;;;;7.50;6.90;;;;;;;;;;5073387;28;20536;-63
2023/05/20 13:03:52;;;;;;;8.97;7.50;;;;;;;;;;5073378;28;20508;-64
2023/05/20 13:06:19;;;;;;;8.13;7.37;;;;;;;;;;5073283;28;20445;-63
2023/05/20 13:08:45;;;;;;;7.50;6.80;;;;;;;;;;5073040;28;20520;-63
2023/05/20 13:11:12;;;;;;;8.80;7.90;;;;;;;;;;5073053;28;20446;-64
2023/05/20 13:13:40;;;;;;;7.67;7.07;;;;;;;;;;5073098;28;20805;-63
2023/05/20 13:16:07;;;;;;;8.90;8.10;;;;;;;;;;5072892;28;20479;-64
2023/05/20 13:18:35;;;;;;;7.47;6.87;;;;;;;;;;5072813;28;20493;-64
2023/05/20 13:21:02;;;;;;;8.10;7.20;;;;;;;;;;5072865;28;20516;-64
2023/05/20 13:23:29;;;;;;;12.07;6.90;;;;;;;;;;5072763;28;20502;-63
2023/05/20 13:25:56;;;;;;;7.50;6.80;;;;;;;;;;5073067;28;20459;-64
2023/05/20 13:28:23;;;;;;;7.53;6.47;;;;;;;;;;5072863;28;20454;-63
2023/05/20 13:30:50;;;;;;;8.20;7.40;;;;;;;;;;5072783;28;20541;-63
2023/05/20 13:33:17;;;;;;;7.10;6.50;;;;;;;;;;5072692;28;20448;-63
2023/05/20 13:35:45;;;;;;;7.50;6.80;;;;;;;;;;5072559;28;20569;-64
2023/05/20 13:38:12;;;;;;;7.57;6.70;;;;;;;;;;5072526;28;20447;-63
2023/05/20 13:40:39;;;;;;;7.60;6.90;;;;;;;;;;5072767;28;20487;-64
2023/05/20 13:43:06;;;;;;;8.27;7.10;;;;;;;;;;5072737;28;20458;-63
2023/05/20 13:45:33;;;;;;;7.23;6.63;;;;;;;;;;5072740;28;20795;-63
2023/05/20 13:48:00;;;;;;;7.03;6.40;;;;;;;;;;5072610;28;20806;-64
2023/05/20 13:50:27;;;;;;;7.53;6.80;;;;;;;;;;5072450;28;20450;-64
2023/05/20 13:52:55;;;;;;;7.53;6.80;;;;;;;;;;5072723;28;20542;-64
2023/05/20 13:55:22;;;;;;;8.77;7.43;;;;;;;;;;5072691;28;20522;-64
2023/05/20 13:57:52;;;;;;;8.77;7.40;;;;;;;;;;5072648;28;20550;-63
2023/05/20 14:00:19;;;;;;;7.60;6.90;;;;;;;;;;5072522;28;20442;-64
2023/05/20 14:02:45;;;;;;;6.70;6.20;;;;;;;;;;5072516;28;20815;-63
2023/05/20 14:05:13;;;;;;;7.27;6.67;;;;;;;;;;5072349;28;20444;-63
2023/05/20 14:07:40;;;;;;;7.90;7.20;;;;;;;;;;5072546;28;20541;-64
2023/05/20 14:10:10;;;;;;;7.83;7.13;;;;;;;;;;5072639;28;20513;-64
2023/05/20 14:12:37;;;;;;;7.70;6.97;;;;;;;;;;5076427;28;20454;-64
2023/05/20 14:15:04;;;;;;;7.60;6.40;;;;;;;;;;5076354;28;20443;-64
2023/05/20 14:17:31;;;;;;;7.10;6.40;;;;;;;;;;5076089;28;20483;-64
2023/05/20 14:19:59;;;;;;;9.37;8.47;;;;;;;;;;5076038;28;20458;-64
2023/05/20 14:22:26;;;;;;;7.50;6.80;;;;;;;;;;5076176;28;20815;-64
2023/05/20 14:24:53;;;;;;;6.63;6.03;;;;;;;;;;5076343;28;20450;-64
2023/05/20 14:27:21;;;;;;;6.50;6.00;;;;;;;;;;5076154;28;20451;-64
2023/05/20 14:29:48;;;;;;;6.30;5.87;;;;;;;;;;5076063;28;20788;-64
2023/05/20 14:32:15;;;;;;;7.47;6.80;;;;;;;;;;5075928;28;20448;-64
2023/05/20 14:34:42;;;;;;;7.33;6.60;;;;;;;;;;5076083;28;20450;-63
2023/05/20 14:37:10;;;;;;;6.80;6.20;;;;;;;;;;5075919;28;20549;-64
2023/05/20 14:39:37;;;;;;;10.23;5.70;;;;;;;;;;5075930;28;20497;-64
2023/05/20 14:42:05;;;;;;;6.70;6.10;;;;;;;;;;5075828;28;20479;-64
2023/05/20 14:44:33;;;;;;;7.30;6.70;;;;;;;;;;5075680;28;20557;-64